sensor_id;sensor_type;location;lat;lon;timestamp;pressure;altitude;pressure_sealevel;temperature;humidity
62458;BME280;48509;52.122;5.250;2022-12-18T00:01:00;102846.0;;;-1.1;88.34
62458;BME280;48509;52.122;5.250;2022-12-18T00:02:36;102839.00000000001;;;-0.98;87.56
62458;BME280;48509;52.122;5.250;2022-12-18T00:04:22;102832.0;;;-0.96;87.59
62458;BME280;48509;52.122;5.250;2022-12-18T00:07:35;102819.0;;;-0.98;87.65
62458;BME280;48509;52.122;5.250;2022-12-18T00:09:12;102821.0;;;-1.11;87.87
62458;BME280;48509;52.122;5.250;2022-12-18T00:10:48;102824.0;;;-1.09;87.83
62458;BME280;48509;52.122;5.250;2022-12-18T00:14:00;102816.00000000001;;;-1.2;88.21
62458;BME280;48509;52.122;5.250;2022-12-18T00:15:38;102814.00000000001;;;-1.17;87.83
62458;BME280;48509;52.122;5.250;2022-12-18T00:17:15;102811.99999999999;;;-1.31;88.4
62458;BME280;48509;52.122;5.250;2022-12-18T00:18:53;102806.0;;;-1.26;88.36
62458;BME280;48509;52.122;5.250;2022-12-18T00:22:12;102807.0;;;-1.18;88.09
62458;BME280;48509;52.122;5.250;2022-12-18T00:23:50;102807.0;;;-1.26;87.98
62458;BME280;48509;52.122;5.250;2022-12-18T00:25:26;102813.00000000001;;;-1.46;88.41
62458;BME280;48509;52.122;5.250;2022-12-18T00:28:39;102816.00000000001;;;-1.44;89.05
62458;BME280;48509;52.122;5.250;2022-12-18T00:30:15;102820.0;;;-1.37;88.81
62458;BME280;48509;52.122;5.250;2022-12-18T00:31:52;102818.0;;;-1.4;88.81
62458;BME280;48509;52.122;5.250;2022-12-18T00:33:29;102808.99999999999;;;-1.38;88.43
62458;BME280;48509;52.122;5.250;2022-12-18T00:36:43;102813.00000000001;;;-1.27;87.98
62458;BME280;48509;52.122;5.250;2022-12-18T00:38:19;102808.99999999999;;;-1.29;87.68
62458;BME280;48509;52.122;5.250;2022-12-18T00:39:55;102806.0;;;-1.39;87.89
62458;BME280;48509;52.122;5.250;2022-12-18T00:43:08;102809.99999999999;;;-1.55;88.53
62458;BME280;48509;52.122;5.250;2022-12-18T00:44:45;102808.99999999999;;;-1.39;88.39
62458;BME280;48509;52.122;5.250;2022-12-18T00:46:21;102808.0;;;-1.28;87.8
62458;BME280;48509;52.122;5.250;2022-12-18T00:49:33;102803.0;;;-1.44;88.18
62458;BME280;48509;52.122;5.250;2022-12-18T00:51:09;102807.0;;;-1.58;88.85
62458;BME280;48509;52.122;5.250;2022-12-18T00:52:46;102806.0;;;-1.62;89.23
62458;BME280;48509;52.122;5.250;2022-12-18T00:54:22;102814.00000000001;;;-1.64;89.57
62458;BME280;48509;52.122;5.250;2022-12-18T00:57:35;102811.99999999999;;;-1.61;89.51
62458;BME280;48509;52.122;5.250;2022-12-18T01:00:47;102808.0;;;-1.67;89.38
62458;BME280;48509;52.122;5.250;2022-12-18T01:04:01;102808.99999999999;;;-1.67;89.38
62458;BME280;48509;52.122;5.250;2022-12-18T01:05:39;102808.0;;;-1.58;89.62
62458;BME280;48509;52.122;5.250;2022-12-18T01:07:15;102805.0;;;-1.7;89.44
62458;BME280;48509;52.122;5.250;2022-12-18T01:10:28;102808.0;;;-1.71;89.6
62458;BME280;48509;52.122;5.250;2022-12-18T01:12:05;102809.99999999999;;;-1.69;89.26
62458;BME280;48509;52.122;5.250;2022-12-18T01:13:42;102808.99999999999;;;-1.75;89.14
62458;BME280;48509;52.122;5.250;2022-12-18T01:15:19;102808.99999999999;;;-1.63;89.02
62458;BME280;48509;52.122;5.250;2022-12-18T01:18:32;102811.99999999999;;;-1.75;88.84
62458;BME280;48509;52.122;5.250;2022-12-18T01:20:09;102805.0;;;-1.67;88.55
62458;BME280;48509;52.122;5.250;2022-12-18T01:21:47;102803.0;;;-1.76;89.13
62458;BME280;48509;52.122;5.250;2022-12-18T01:25:03;102804.0;;;-1.63;88.74
62458;BME280;48509;52.122;5.250;2022-12-18T01:26:41;102817.0;;;-1.71;88.94
62458;BME280;48509;52.122;5.250;2022-12-18T01:28:16;102818.0;;;-1.68;88.73
62458;BME280;48509;52.122;5.250;2022-12-18T01:29:53;102817.0;;;-1.7;88.79
62458;BME280;48509;52.122;5.250;2022-12-18T01:33:09;102806.0;;;-1.67;88.88
62458;BME280;48509;52.122;5.250;2022-12-18T01:34:45;102816.00000000001;;;-1.57;88.57
62458;BME280;48509;52.122;5.250;2022-12-18T01:36:24;102817.0;;;-1.87;89.06
62458;BME280;48509;52.122;5.250;2022-12-18T01:39:37;102817.0;;;-1.79;88.97
62458;BME280;48509;52.122;5.250;2022-12-18T01:41:14;102824.0;;;-1.8;89.18
62458;BME280;48509;52.122;5.250;2022-12-18T01:42:55;102823.0;;;-1.75;88.57
62458;BME280;48509;52.122;5.250;2022-12-18T01:46:57;102821.0;;;-1.72;88.61
62458;BME280;48509;52.122;5.250;2022-12-18T01:50:11;102819.0;;;-1.69;88.9
62458;BME280;48509;52.122;5.250;2022-12-18T01:51:50;102824.0;;;-1.72;88.98
62458;BME280;48509;52.122;5.250;2022-12-18T01:53:28;102823.0;;;-1.57;88.5
62458;BME280;48509;52.122;5.250;2022-12-18T01:55:05;102833.0;;;-1.57;88.58
62458;BME280;48509;52.122;5.250;2022-12-18T01:58:19;102838.00000000001;;;-1.52;88.25
62458;BME280;48509;52.122;5.250;2022-12-18T02:00:02;102829.0;;;-1.73;88.57
62458;BME280;48509;52.122;5.250;2022-12-18T02:01:43;102833.0;;;-1.58;88.53
62458;BME280;48509;52.122;5.250;2022-12-18T02:04:56;102830.0;;;-1.58;88.28
62458;BME280;48509;52.122;5.250;2022-12-18T02:06:36;102834.99999999999;;;-1.54;88.47
62458;BME280;48509;52.122;5.250;2022-12-18T02:08:20;102828.0;;;-1.51;88.05
62458;BME280;48509;52.122;5.250;2022-12-18T02:10:05;102830.0;;;-1.66;87.81
62458;BME280;48509;52.122;5.250;2022-12-18T02:11:49;102840.00000000001;;;-1.65;87.55
62458;BME280;48509;52.122;5.250;2022-12-18T02:15:23;102843.0;;;-1.72;87.58
62458;BME280;48509;52.122;5.250;2022-12-18T02:17:06;102841.00000000001;;;-1.83;87.99
62458;BME280;48509;52.122;5.250;2022-12-18T02:18:50;102839.00000000001;;;-1.66;86.95
62458;BME280;48509;52.122;5.250;2022-12-18T02:20:34;102843.0;;;-1.83;87.05
62458;BME280;48509;52.122;5.250;2022-12-18T02:22:23;102850.0;;;-1.91;86.71
62458;BME280;48509;52.122;5.250;2022-12-18T02:26:07;102851.0;;;-1.89;86.31
62458;BME280;48509;52.122;5.250;2022-12-18T02:27:49;102852.0;;;-1.87;86.3
62458;BME280;48509;52.122;5.250;2022-12-18T02:29:29;102853.0;;;-1.99;86.48
62458;BME280;48509;52.122;5.250;2022-12-18T02:31:11;102848.0;;;-1.98;85.95
62458;BME280;48509;52.122;5.250;2022-12-18T02:34:33;102848.0;;;-1.92;85.82
62458;BME280;48509;52.122;5.250;2022-12-18T02:36:15;102844.0;;;-1.85;85.46
62458;BME280;48509;52.122;5.250;2022-12-18T02:37:53;102843.0;;;-1.87;85.38
62458;BME280;48509;52.122;5.250;2022-12-18T02:39:30;102842.0;;;-1.87;84.92
62458;BME280;48509;52.122;5.250;2022-12-18T02:41:09;102842.0;;;-1.91;84.86
62458;BME280;48509;52.122;5.250;2022-12-18T02:44:22;102838.00000000001;;;-2.09;85.03
62458;BME280;48509;52.122;5.250;2022-12-18T02:45:59;102840.00000000001;;;-2.09;84.9
62458;BME280;48509;52.122;5.250;2022-12-18T02:47:56;102823.0;;;-2.29;84.9
62458;BME280;48509;52.122;5.250;2022-12-18T02:49:39;102824.0;;;-2.52;85.9
62458;BME280;48509;52.122;5.250;2022-12-18T02:53:10;102825.0;;;-2.64;86.02
62458;BME280;48509;52.122;5.250;2022-12-18T02:54:57;102827.0;;;-2.75;86.74
62458;BME280;48509;52.122;5.250;2022-12-18T02:56:45;102823.0;;;-2.81;86.97
62458;BME280;48509;52.122;5.250;2022-12-18T02:58:30;102819.0;;;-2.86;87.04
62458;BME280;48509;52.122;5.250;2022-12-18T03:00:12;102818.0;;;-2.81;86.83
62458;BME280;48509;52.122;5.250;2022-12-18T03:03:36;102817.0;;;-2.91;87.37
62458;BME280;48509;52.122;5.250;2022-12-18T03:05:18;102822.0;;;-2.97;87.88
62458;BME280;48509;52.122;5.250;2022-12-18T03:07:01;102819.0;;;-2.85;87.55
62458;BME280;48509;52.122;5.250;2022-12-18T03:08:44;102809.99999999999;;;-2.8;86.29
62458;BME280;48509;52.122;5.250;2022-12-18T03:10:26;102815.00000000001;;;-2.86;86.39
62458;BME280;48509;52.122;5.250;2022-12-18T03:13:54;102808.99999999999;;;-2.86;86.74
62458;BME280;48509;52.122;5.250;2022-12-18T03:15:36;102806.0;;;-2.81;86.23
62458;BME280;48509;52.122;5.250;2022-12-18T03:17:16;102800.0;;;-2.95;86.64
62458;BME280;48509;52.122;5.250;2022-12-18T03:18:58;102792.0;;;-2.81;85.71
62458;BME280;48509;52.122;5.250;2022-12-18T03:22:20;102795.0;;;-3.04;86.07
62458;BME280;48509;52.122;5.250;2022-12-18T03:23:59;102792.0;;;-2.97;86.01
62458;BME280;48509;52.122;5.250;2022-12-18T03:25:41;102784.99999999999;;;-2.99;84.99
62458;BME280;48509;52.122;5.250;2022-12-18T03:27:20;102780.0;;;-2.99;84.84
62458;BME280;48509;52.122;5.250;2022-12-18T03:30:45;102781.0;;;-2.96;84.68
62458;BME280;48509;52.122;5.250;2022-12-18T03:32:26;102781.0;;;-2.9;84.55
62458;BME280;48509;52.122;5.250;2022-12-18T03:34:09;102780.0;;;-2.55;83.7
62458;BME280;48509;52.122;5.250;2022-12-18T03:35:49;102770.0;;;-2.49;82.94
62458;BME280;48509;52.122;5.250;2022-12-18T03:39:02;102768.0;;;-2.43;82.46
62458;BME280;48509;52.122;5.250;2022-12-18T03:40:53;102768.0;;;-2.54;82.2
62458;BME280;48509;52.122;5.250;2022-12-18T03:42:40;102768.0;;;-2.61;82.34
62458;BME280;48509;52.122;5.250;2022-12-18T03:44:28;102768.0;;;-2.68;82.35
62458;BME280;48509;52.122;5.250;2022-12-18T03:46:11;102766.00000000001;;;-2.56;82.1
62458;BME280;48509;52.122;5.250;2022-12-18T03:49:40;102770.0;;;-2.43;81.47
62458;BME280;48509;52.122;5.250;2022-12-18T03:51:25;102767.0;;;-2.62;81.94
62458;BME280;48509;52.122;5.250;2022-12-18T03:53:14;102772.0;;;-3.0;82.7
62458;BME280;48509;52.122;5.250;2022-12-18T03:54:55;102776.0;;;-3.22;84.09
62458;BME280;48509;52.122;5.250;2022-12-18T03:56:38;102772.0;;;-3.4;84.9
62458;BME280;48509;52.122;5.250;2022-12-18T04:00:00;102769.0;;;-3.51;84.64
62458;BME280;48509;52.122;5.250;2022-12-18T04:01:40;102764.00000000001;;;-3.44;85.05
62458;BME280;48509;52.122;5.250;2022-12-18T04:03:20;102758.99999999999;;;-3.4;84.42
62458;BME280;48509;52.122;5.250;2022-12-18T04:04:59;102755.0;;;-3.4;83.83
62458;BME280;48509;52.122;5.250;2022-12-18T04:08:16;102752.0;;;-3.46;84.37
62458;BME280;48509;52.122;5.250;2022-12-18T04:09:55;102747.0;;;-3.38;85.01
62458;BME280;48509;52.122;5.250;2022-12-18T04:11:32;102742.0;;;-3.41;85.41
62458;BME280;48509;52.122;5.250;2022-12-18T04:13:09;102738.00000000001;;;-3.45;84.91
62458;BME280;48509;52.122;5.250;2022-12-18T04:16:21;102731.0;;;-3.36;85.11
62458;BME280;48509;52.122;5.250;2022-12-18T04:17:57;102724.0;;;-3.4;85.24
62458;BME280;48509;52.122;5.250;2022-12-18T04:19:33;102725.0;;;-3.44;85.76
62458;BME280;48509;52.122;5.250;2022-12-18T04:22:47;102727.0;;;-3.51;85.91
62458;BME280;48509;52.122;5.250;2022-12-18T04:24:24;102726.0;;;-3.51;85.7
62458;BME280;48509;52.122;5.250;2022-12-18T04:26:00;102733.0;;;-3.58;85.69
62458;BME280;48509;52.122;5.250;2022-12-18T04:29:12;102734.99999999999;;;-3.63;85.74
62458;BME280;48509;52.122;5.250;2022-12-18T04:30:49;102736.99999999999;;;-3.62;85.12
62458;BME280;48509;52.122;5.250;2022-12-18T04:32:24;102733.99999999999;;;-3.63;85.05
62458;BME280;48509;52.122;5.250;2022-12-18T04:34:01;102726.0;;;-3.46;84.25
62458;BME280;48509;52.122;5.250;2022-12-18T04:37:13;102733.99999999999;;;-3.32;83.69
62458;BME280;48509;52.122;5.250;2022-12-18T04:38:49;102740.00000000001;;;-3.29;83.25
62458;BME280;48509;52.122;5.250;2022-12-18T04:40:25;102742.0;;;-3.26;82.58
62458;BME280;48509;52.122;5.250;2022-12-18T04:43:38;102747.0;;;-3.21;82.67
62458;BME280;48509;52.122;5.250;2022-12-18T04:45:14;102752.0;;;-3.47;83.11
62458;BME280;48509;52.122;5.250;2022-12-18T04:46:50;102758.99999999999;;;-3.53;83.51
62458;BME280;48509;52.122;5.250;2022-12-18T04:50:03;102764.00000000001;;;-3.65;83.04
62458;BME280;48509;52.122;5.250;2022-12-18T04:51:40;102767.0;;;-3.52;82.78
62458;BME280;48509;52.122;5.250;2022-12-18T04:53:16;102767.0;;;-3.77;83.38
62458;BME280;48509;52.122;5.250;2022-12-18T04:56:30;102768.0;;;-3.81;83.17
62458;BME280;48509;52.122;5.250;2022-12-18T04:58:07;102769.0;;;-3.7;82.41
62458;BME280;48509;52.122;5.250;2022-12-18T04:59:43;102771.0;;;-3.8;83.08
62458;BME280;48509;52.122;5.250;2022-12-18T05:01:19;102778.0;;;-3.6;82.57
62458;BME280;48509;52.122;5.250;2022-12-18T05:04:31;102784.99999999999;;;-3.7;82.71
62458;BME280;48509;52.122;5.250;2022-12-18T05:06:08;102784.99999999999;;;-3.95;83.48
62458;BME280;48509;52.122;5.250;2022-12-18T05:07:45;102786.99999999999;;;-3.76;83.1
62458;BME280;48509;52.122;5.250;2022-12-18T05:11:00;102782.0;;;-3.58;82.16
62458;BME280;48509;52.122;5.250;2022-12-18T05:12:37;102788.00000000001;;;-3.85;82.74
62458;BME280;48509;52.122;5.250;2022-12-18T05:14:13;102790.00000000001;;;-3.66;82.23
62458;BME280;48509;52.122;5.250;2022-12-18T05:15:51;102795.0;;;-3.66;81.83
62458;BME280;48509;52.122;5.250;2022-12-18T05:19:04;102794.0;;;-3.6;81.94
62458;BME280;48509;52.122;5.250;2022-12-18T05:20:40;102790.00000000001;;;-3.66;82.18
62458;BME280;48509;52.122;5.250;2022-12-18T05:22:17;102794.0;;;-3.51;81.45
62458;BME280;48509;52.122;5.250;2022-12-18T05:25:29;102795.0;;;-3.73;82.04
62458;BME280;48509;52.122;5.250;2022-12-18T05:27:05;102804.0;;;-3.71;82.03
62458;BME280;48509;52.122;5.250;2022-12-18T05:28:41;102805.0;;;-3.72;82.11
62458;BME280;48509;52.122;5.250;2022-12-18T05:31:54;102806.0;;;-3.52;81.66
62458;BME280;48509;52.122;5.250;2022-12-18T05:33:32;102807.0;;;-3.31;80.95
62458;BME280;48509;52.122;5.250;2022-12-18T05:35:10;102807.0;;;-3.3;80.63
62458;BME280;48509;52.122;5.250;2022-12-18T05:36:48;102799.0;;;-3.38;81.3
62458;BME280;48509;52.122;5.250;2022-12-18T05:40:03;102797.0;;;-3.62;81.88
62458;BME280;48509;52.122;5.250;2022-12-18T05:41:40;102794.0;;;-3.63;81.97
62458;BME280;48509;52.122;5.250;2022-12-18T05:43:17;102792.0;;;-3.77;82.39
62458;BME280;48509;52.122;5.250;2022-12-18T05:46:30;102781.0;;;-3.85;83.04
62458;BME280;48509;52.122;5.250;2022-12-18T05:48:06;102779.0;;;-3.52;81.88
62458;BME280;48509;52.122;5.250;2022-12-18T05:49:43;102778.0;;;-3.38;81.12
62458;BME280;48509;52.122;5.250;2022-12-18T05:52:57;102786.99999999999;;;-3.23;80.55
62458;BME280;48509;52.122;5.250;2022-12-18T05:54:33;102786.99999999999;;;-3.28;79.94
62458;BME280;48509;52.122;5.250;2022-12-18T05:56:11;102786.99999999999;;;-3.46;80.61
62458;BME280;48509;52.122;5.250;2022-12-18T05:57:50;102778.0;;;-3.44;80.27
62458;BME280;48509;52.122;5.250;2022-12-18T06:01:08;102770.0;;;-3.71;80.7
62458;BME280;48509;52.122;5.250;2022-12-18T06:02:46;102765.00000000001;;;-3.97;82.35
62458;BME280;48509;52.122;5.250;2022-12-18T06:04:23;102766.00000000001;;;-4.06;82.85
62458;BME280;48509;52.122;5.250;2022-12-18T06:07:35;102765.00000000001;;;-4.11;82.76
62458;BME280;48509;52.122;5.250;2022-12-18T06:09:11;102764.00000000001;;;-4.12;82.44
62458;BME280;48509;52.122;5.250;2022-12-18T06:10:50;102759.99999999999;;;-4.06;82.05
62458;BME280;48509;52.122;5.250;2022-12-18T06:12:27;102748.0;;;-4.13;83.08
62458;BME280;48509;52.122;5.250;2022-12-18T06:15:41;102749.0;;;-4.07;82.42
62458;BME280;48509;52.122;5.250;2022-12-18T06:17:17;102748.0;;;-3.99;81.89
62458;BME280;48509;52.122;5.250;2022-12-18T06:18:55;102746.0;;;-3.92;81.33
62458;BME280;48509;52.122;5.250;2022-12-18T06:22:08;102745.0;;;-3.9;81.05
62458;BME280;48509;52.122;5.250;2022-12-18T06:23:44;102743.0;;;-3.86;81.09
62458;BME280;48509;52.122;5.250;2022-12-18T06:25:20;102746.0;;;-3.96;80.8
62458;BME280;48509;52.122;5.250;2022-12-18T06:28:33;102747.0;;;-4.11;81.53
62458;BME280;48509;52.122;5.250;2022-12-18T06:30:10;102744.0;;;-4.28;82.04
62458;BME280;48509;52.122;5.250;2022-12-18T06:31:46;102745.0;;;-4.22;82.17
62458;BME280;48509;52.122;5.250;2022-12-18T06:33:26;102747.0;;;-4.48;83.17
62458;BME280;48509;52.122;5.250;2022-12-18T06:36:40;102746.0;;;-4.59;82.93
62458;BME280;48509;52.122;5.250;2022-12-18T06:38:16;102740.00000000001;;;-4.59;83.34
62458;BME280;48509;52.122;5.250;2022-12-18T06:39:52;102732.0;;;-4.53;82.96
62458;BME280;48509;52.122;5.250;2022-12-18T06:43:05;102730.0;;;-4.45;82.72
62458;BME280;48509;52.122;5.250;2022-12-18T06:44:42;102730.0;;;-4.51;82.95
62458;BME280;48509;52.122;5.250;2022-12-18T06:46:18;102731.0;;;-4.65;83.43
62458;BME280;48509;52.122;5.250;2022-12-18T06:47:55;102726.0;;;-4.59;83.63
62458;BME280;48509;52.122;5.250;2022-12-18T06:51:08;102711.99999999999;;;-4.56;83.21
62458;BME280;48509;52.122;5.250;2022-12-18T06:52:43;102708.0;;;-4.61;83.78
62458;BME280;48509;52.122;5.250;2022-12-18T06:54:20;102708.0;;;-4.55;83.26
62458;BME280;48509;52.122;5.250;2022-12-18T06:57:36;102707.0;;;-4.59;83.41
62458;BME280;48509;52.122;5.250;2022-12-18T06:59:14;102705.0;;;-4.43;83.09
62458;BME280;48509;52.122;5.250;2022-12-18T07:00:50;102703.0;;;-4.3;82.56
62458;BME280;48509;52.122;5.250;2022-12-18T07:04:03;102703.0;;;-4.37;82.79
62458;BME280;48509;52.122;5.250;2022-12-18T07:05:39;102702.0;;;-4.3;82.48
62458;BME280;48509;52.122;5.250;2022-12-18T07:07:17;102701.0;;;-4.26;82.64
62458;BME280;48509;52.122;5.250;2022-12-18T07:08:54;102698.0;;;-4.32;82.13
62458;BME280;48509;52.122;5.250;2022-12-18T07:12:07;102696.0;;;-4.35;82.43
62458;BME280;48509;52.122;5.250;2022-12-18T07:13:44;102686.99999999999;;;-4.31;82.03
62458;BME280;48509;52.122;5.250;2022-12-18T07:15:20;102684.99999999999;;;-4.21;81.92
62458;BME280;48509;52.122;5.250;2022-12-18T07:18:33;102688.00000000001;;;-4.38;82.71
62458;BME280;48509;52.122;5.250;2022-12-18T07:20:10;102686.99999999999;;;-4.36;82.31
62458;BME280;48509;52.122;5.250;2022-12-18T07:21:46;102683.0;;;-4.43;82.81
62458;BME280;48509;52.122;5.250;2022-12-18T07:24:58;102681.0;;;-4.25;82.18
62458;BME280;48509;52.122;5.250;2022-12-18T07:26:35;102680.0;;;-4.09;81.88
62458;BME280;48509;52.122;5.250;2022-12-18T07:28:11;102683.99999999999;;;-4.27;81.91
62458;BME280;48509;52.122;5.250;2022-12-18T07:29:47;102686.99999999999;;;-4.32;82.61
62458;BME280;48509;52.122;5.250;2022-12-18T07:33:00;102681.0;;;-4.32;82.49
62458;BME280;48509;52.122;5.250;2022-12-18T07:34:37;102678.0;;;-4.41;83.29
62458;BME280;48509;52.122;5.250;2022-12-18T07:36:13;102667.0;;;-4.23;83.07
62458;BME280;48509;52.122;5.250;2022-12-18T07:39:26;102658.0;;;-4.4;82.98
62458;BME280;48509;52.122;5.250;2022-12-18T07:41:04;102658.0;;;-4.33;82.87
62458;BME280;48509;52.122;5.250;2022-12-18T07:42:40;102655.0;;;-4.38;83.62
62458;BME280;48509;52.122;5.250;2022-12-18T07:45:55;102656.0;;;-4.35;83.32
62458;BME280;48509;52.122;5.250;2022-12-18T07:47:34;102656.0;;;-4.23;82.89
62458;BME280;48509;52.122;5.250;2022-12-18T07:49:10;102646.0;;;-4.12;82.93
62458;BME280;48509;52.122;5.250;2022-12-18T07:50:47;102638.00000000001;;;-4.09;82.29
62458;BME280;48509;52.122;5.250;2022-12-18T07:53:59;102634.99999999999;;;-4.13;82.36
62458;BME280;48509;52.122;5.250;2022-12-18T07:55:35;102638.00000000001;;;-4.16;83.05
62458;BME280;48509;52.122;5.250;2022-12-18T07:57:11;102640.00000000001;;;-4.16;83.09
62458;BME280;48509;52.122;5.250;2022-12-18T08:00:24;102633.99999999999;;;-4.13;82.62
62458;BME280;48509;52.122;5.250;2022-12-18T08:02:00;102628.0;;;-4.11;82.78
62458;BME280;48509;52.122;5.250;2022-12-18T08:03:38;102631.0;;;-3.97;82.88
62458;BME280;48509;52.122;5.250;2022-12-18T08:06:51;102624.0;;;-4.02;83.49
62458;BME280;48509;52.122;5.250;2022-12-18T08:08:28;102617.0;;;-3.94;84.56
62458;BME280;48509;52.122;5.250;2022-12-18T08:10:05;102614.00000000001;;;-3.89;84.93
62458;BME280;48509;52.122;5.250;2022-12-18T08:11:41;102615.00000000001;;;-3.85;84.72
62458;BME280;48509;52.122;5.250;2022-12-18T08:14:54;102620.0;;;-3.69;84.39
62458;BME280;48509;52.122;5.250;2022-12-18T08:16:31;102629.0;;;-3.46;84.05
62458;BME280;48509;52.122;5.250;2022-12-18T08:18:07;102626.0;;;-3.57;84.25
62458;BME280;48509;52.122;5.250;2022-12-18T08:21:22;102633.0;;;-3.62;84.94
62458;BME280;48509;52.122;5.250;2022-12-18T08:22:58;102644.0;;;-3.58;84.41
62458;BME280;48509;52.122;5.250;2022-12-18T08:24:34;102643.0;;;-3.56;84.39
62458;BME280;48509;52.122;5.250;2022-12-18T08:27:47;102652.0;;;-3.55;84.33
62458;BME280;48509;52.122;5.250;2022-12-18T08:29:23;102651.0;;;-3.54;84.44
62458;BME280;48509;52.122;5.250;2022-12-18T08:31:00;102644.0;;;-3.32;83.87
62458;BME280;48509;52.122;5.250;2022-12-18T08:32:36;102650.0;;;-3.46;84.07
62458;BME280;48509;52.122;5.250;2022-12-18T08:35:48;102653.0;;;-3.42;84.03
62458;BME280;48509;52.122;5.250;2022-12-18T08:37:24;102658.0;;;-3.49;83.95
62458;BME280;48509;52.122;5.250;2022-12-18T08:39:00;102665.00000000001;;;-3.41;83.68
62458;BME280;48509;52.122;5.250;2022-12-18T08:42:12;102658.0;;;-3.4;83.8
62458;BME280;48509;52.122;5.250;2022-12-18T08:43:48;102648.0;;;-3.17;83.32
62458;BME280;48509;52.122;5.250;2022-12-18T08:45:25;102644.0;;;-3.32;84.34
62458;BME280;48509;52.122;5.250;2022-12-18T08:48:37;102636.99999999999;;;-3.38;84.79
62458;BME280;48509;52.122;5.250;2022-12-18T08:50:14;102636.99999999999;;;-3.21;83.96
62458;BME280;48509;52.122;5.250;2022-12-18T08:51:54;102638.00000000001;;;-3.21;83.95
62458;BME280;48509;52.122;5.250;2022-12-18T08:53:30;102633.0;;;-3.11;83.37
62458;BME280;48509;52.122;5.250;2022-12-18T08:56:44;102631.0;;;-3.17;84.7
62458;BME280;48509;52.122;5.250;2022-12-18T08:58:21;102631.0;;;-3.13;86.37
62458;BME280;48509;52.122;5.250;2022-12-18T08:59:57;102628.0;;;-3.05;85.45
62458;BME280;48509;52.122;5.250;2022-12-18T09:03:11;102627.0;;;-2.91;85.09
62458;BME280;48509;52.122;5.250;2022-12-18T09:04:48;102625.0;;;-2.74;85.02
62458;BME280;48509;52.122;5.250;2022-12-18T09:06:24;102620.0;;;-2.49;84.3
62458;BME280;48509;52.122;5.250;2022-12-18T09:09:36;102622.0;;;-2.47;84.93
62458;BME280;48509;52.122;5.250;2022-12-18T09:11:14;102627.0;;;-2.51;85.69
62458;BME280;48509;52.122;5.250;2022-12-18T09:12:54;102628.0;;;-2.39;85.6
62458;BME280;48509;52.122;5.250;2022-12-18T09:14:30;102633.0;;;-2.41;85.02
62458;BME280;48509;52.122;5.250;2022-12-18T09:17:43;102634.99999999999;;;-2.34;85.4
62458;BME280;48509;52.122;5.250;2022-12-18T09:19:19;102642.0;;;-2.25;85.27
62458;BME280;48509;52.122;5.250;2022-12-18T09:20:55;102634.99999999999;;;-2.22;85.38
62458;BME280;48509;52.122;5.250;2022-12-18T09:24:11;102633.99999999999;;;-2.21;85.6
62458;BME280;48509;52.122;5.250;2022-12-18T09:25:49;102630.0;;;-2.0;85.34
62458;BME280;48509;52.122;5.250;2022-12-18T09:27:25;102625.0;;;-1.97;84.92
62458;BME280;48509;52.122;5.250;2022-12-18T09:29:02;102627.0;;;-2.09;85.87
62458;BME280;48509;52.122;5.250;2022-12-18T09:32:16;102631.0;;;-1.99;85.66
62458;BME280;48509;52.122;5.250;2022-12-18T09:33:54;102624.0;;;-1.95;86.04
62458;BME280;48509;52.122;5.250;2022-12-18T09:35:31;102617.0;;;-1.85;85.92
62458;BME280;48509;52.122;5.250;2022-12-18T09:38:44;102608.99999999999;;;-1.88;86.24
62458;BME280;48509;52.122;5.250;2022-12-18T09:40:22;102609.99999999999;;;-1.77;86.03
62458;BME280;48509;52.122;5.250;2022-12-18T09:42:01;102606.0;;;-1.74;85.63
62458;BME280;48509;52.122;5.250;2022-12-18T09:43:42;102602.0;;;-1.59;85.67
62458;BME280;48509;52.122;5.250;2022-12-18T09:47:04;102593.0;;;-1.52;85.08
62458;BME280;48509;52.122;5.250;2022-12-18T09:48:48;102599.0;;;-1.35;84.74
62458;BME280;48509;52.122;5.250;2022-12-18T09:50:30;102602.0;;;-1.19;84.13
62458;BME280;48509;52.122;5.250;2022-12-18T09:52:11;102592.0;;;-1.13;83.85
62458;BME280;48509;52.122;5.250;2022-12-18T09:55:35;102593.0;;;-1.13;83.96
62458;BME280;48509;52.122;5.250;2022-12-18T09:57:15;102600.0;;;-1.22;84.86
62458;BME280;48509;52.122;5.250;2022-12-18T09:58:57;102595.0;;;-1.12;84.61
62458;BME280;48509;52.122;5.250;2022-12-18T10:00:35;102589.00000000001;;;-1.13;85.05
62458;BME280;48509;52.122;5.250;2022-12-18T10:03:52;102579.0;;;-1.14;84.29
62458;BME280;48509;52.122;5.250;2022-12-18T10:05:36;102580.0;;;-1.14;84.84
62458;BME280;48509;52.122;5.250;2022-12-18T10:07:29;102577.0;;;-1.05;84.59
62458;BME280;48509;52.122;5.250;2022-12-18T10:09:18;102578.0;;;-1.09;84.98
62458;BME280;48509;52.122;5.250;2022-12-18T10:11:01;102577.0;;;-0.98;85.06
62458;BME280;48509;52.122;5.250;2022-12-18T10:14:36;102571.0;;;-0.83;84.51
62458;BME280;48509;52.122;5.250;2022-12-18T10:16:19;102570.0;;;-0.9;84.98
62458;BME280;48509;52.122;5.250;2022-12-18T10:18:12;102579.0;;;-0.88;85.19
62458;BME280;48509;52.122;5.250;2022-12-18T10:20:00;102589.00000000001;;;-0.88;84.86
62458;BME280;48509;52.122;5.250;2022-12-18T10:21:43;102592.0;;;-0.75;84.35
62458;BME280;48509;52.122;5.250;2022-12-18T10:23:28;102593.0;;;-0.6;84.66
62458;BME280;48509;52.122;5.250;2022-12-18T10:26:59;102593.0;;;-0.67;84.39
62458;BME280;48509;52.122;5.250;2022-12-18T10:28:45;102586.99999999999;;;-0.65;84.79
62458;BME280;48509;52.122;5.250;2022-12-18T10:30:24;102583.0;;;-0.67;85.42
62458;BME280;48509;52.122;5.250;2022-12-18T10:32:01;102578.0;;;-0.59;84.54
62458;BME280;48509;52.122;5.250;2022-12-18T10:35:18;102571.0;;;-0.46;83.64
62458;BME280;48509;52.122;5.250;2022-12-18T10:36:56;102570.0;;;-0.42;83.56
62458;BME280;48509;52.122;5.250;2022-12-18T10:38:33;102573.0;;;-0.33;83.03
62458;BME280;48509;52.122;5.250;2022-12-18T10:40:11;102570.0;;;-0.33;83.49
62458;BME280;48509;52.122;5.250;2022-12-18T10:43:27;102567.0;;;-0.26;83.08
62458;BME280;48509;52.122;5.250;2022-12-18T10:45:12;102552.0;;;-0.14;82.12
62458;BME280;48509;52.122;5.250;2022-12-18T10:46:53;102536.99999999999;;;-0.12;82.58